createdAt,value
2022-11-13T00:01:16.338Z,0.70
2022-11-13T00:03:45.956Z,0.70
2022-11-13T00:06:13.707Z,1.05
2022-11-13T00:08:40.951Z,0.93
2022-11-13T00:11:13.471Z,0.60
2022-11-13T00:13:40.761Z,0.77
2022-11-13T00:16:12.297Z,0.47
2022-11-13T00:18:39.818Z,0.70
2022-11-13T00:21:07.127Z,0.50
2022-11-13T00:23:39.473Z,0.90
2022-11-13T00:26:12.188Z,1.00
2022-11-13T00:28:51.705Z,0.77
2022-11-13T00:31:18.320Z,0.83
2022-11-13T00:34:09.223Z,0.73
2022-11-13T00:36:31.650Z,0.60
2022-11-13T00:38:58.814Z,0.50
2022-11-13T00:41:25.489Z,1.17
2022-11-13T00:43:52.202Z,0.52
2022-11-13T00:46:19.321Z,0.75
2022-11-13T00:48:46.443Z,0.80
2022-11-13T00:51:13.123Z,0.60
2022-11-13T00:53:39.784Z,0.35
2022-11-13T00:56:06.745Z,0.40
2022-11-13T00:58:33.370Z,0.70
2022-11-13T01:01:09.331Z,0.88
2022-11-13T01:03:38.967Z,0.70
2022-11-13T01:06:24.072Z,0.45
2022-11-13T01:08:59.723Z,0.55
2022-11-13T01:11:29.579Z,0.95
2022-11-13T01:13:57.038Z,0.30
2022-11-13T01:16:26.126Z,0.70
2022-11-13T01:18:57.058Z,0.60
2022-11-13T01:21:28.318Z,0.52
2022-11-13T01:23:56.252Z,0.73
2022-11-13T01:26:28.475Z,0.60
2022-11-13T01:28:57.186Z,0.80
2022-11-13T01:31:26.616Z,0.45
2022-11-13T01:33:56.697Z,0.60
2022-11-13T01:36:29.436Z,0.10
2022-11-13T01:38:56.515Z,0.20
2022-11-13T01:41:32.668Z,0.80
2022-11-13T01:44:00.588Z,0.35
2022-11-13T01:46:35.781Z,0.65
2022-11-13T01:49:05.161Z,0.40
2022-11-13T01:51:39.433Z,0.63
2022-11-13T01:54:14.577Z,0.30
2022-11-13T01:56:41.832Z,0.50
2022-11-13T01:59:18.086Z,0.45
2022-11-13T02:01:45.175Z,0.88
2022-11-13T02:04:12.023Z,0.55
2022-11-13T02:07:06.923Z,0.90
2022-11-13T02:09:40.246Z,0.85
2022-11-13T02:12:11.169Z,0.30
2022-11-13T02:14:42.256Z,0.50
2022-11-13T02:17:14.494Z,0.70
2022-11-13T02:19:46.875Z,0.40
2022-11-13T02:22:22.494Z,0.47
2022-11-13T02:24:54.436Z,0.65
2022-11-13T02:27:29.026Z,0.32
2022-11-13T02:29:59.070Z,0.83
2022-11-13T02:32:25.695Z,0.60
2022-11-13T02:34:52.364Z,0.95
2022-11-13T02:37:19.035Z,0.55
2022-11-13T02:39:45.754Z,0.55
2022-11-13T02:42:12.634Z,0.43
2022-11-13T02:44:39.344Z,0.50
2022-11-13T02:47:06.049Z,0.60
2022-11-13T02:49:33.770Z,0.55
2022-11-13T02:52:00.473Z,0.38
2022-11-13T02:54:27.159Z,0.60
2022-11-13T02:56:53.801Z,0.43
2022-11-13T02:59:20.486Z,0.50
2022-11-13T03:01:48.011Z,0.38
2022-11-13T03:04:14.782Z,0.68
2022-11-13T03:06:41.493Z,0.30
2022-11-13T03:09:08.249Z,0.80
2022-11-13T03:11:34.899Z,0.40
2022-11-13T03:14:01.704Z,0.45
2022-11-13T03:16:28.397Z,0.88
2022-11-13T03:18:56.146Z,0.57
2022-11-13T03:21:22.807Z,0.45
2022-11-13T03:23:49.547Z,0.90
2022-11-13T03:26:17.839Z,0.40
2022-11-13T03:28:44.903Z,0.70
2022-11-13T03:31:13.042Z,0.47
2022-11-13T03:33:39.735Z,0.30
2022-11-13T03:36:06.769Z,0.50
2022-11-13T03:38:34.048Z,0.33
2022-11-13T03:41:00.702Z,0.80
2022-11-13T03:43:27.341Z,0.60
2022-11-13T03:45:54.013Z,0.40
2022-11-13T03:48:20.716Z,0.73
2022-11-13T03:50:52.391Z,0.80
2022-11-13T03:53:19.105Z,0.40
2022-11-13T03:55:47.138Z,0.80
2022-11-13T03:58:16.800Z,0.60
2022-11-13T04:00:44.663Z,0.73
2022-11-13T04:03:11.699Z,0.90
2022-11-13T04:05:38.833Z,0.75
2022-11-13T04:08:06.012Z,0.60
2022-11-13T04:10:32.743Z,0.47
2022-11-13T04:12:59.570Z,0.60
2022-11-13T04:15:26.241Z,0.30
2022-11-13T04:17:54.939Z,0.30
2022-11-13T04:20:21.741Z,0.32
2022-11-13T04:22:48.432Z,0.30
2022-11-13T04:25:15.128Z,0.25
2022-11-13T04:27:44.855Z,0.13
2022-11-13T04:30:11.833Z,0.60
2022-11-13T04:32:38.504Z,0.88
2022-11-13T04:35:05.543Z,0.60
2022-11-13T04:37:32.192Z,0.50
2022-11-13T04:39:58.820Z,0.30
2022-11-13T04:42:47.334Z,0.45
2022-11-13T04:45:14.431Z,0.30
2022-11-13T04:47:41.054Z,0.77
2022-11-13T04:50:08.016Z,0.20
2022-11-13T04:52:34.674Z,0.82
2022-11-13T04:55:04.851Z,0.32
2022-11-13T04:57:32.296Z,0.40
2022-11-13T04:59:59.069Z,0.90
2022-11-13T05:02:27.958Z,0.30
2022-11-13T05:05:01.898Z,0.73
2022-11-13T05:07:31.601Z,0.60
2022-11-13T05:09:58.214Z,0.30
2022-11-13T05:12:24.821Z,0.47
2022-11-13T05:14:51.503Z,0.25
2022-11-13T05:17:18.214Z,0.32
2022-11-13T05:19:44.804Z,0.20
2022-11-13T05:22:11.521Z,0.30
2022-11-13T05:24:38.177Z,0.30
2022-11-13T05:27:04.809Z,0.40
2022-11-13T05:29:31.855Z,0.75
2022-11-13T05:31:58.560Z,0.30
2022-11-13T05:34:25.786Z,0.40
2022-11-13T05:36:55.176Z,0.68
2022-11-13T05:39:21.841Z,0.40
2022-11-13T05:41:48.464Z,0.45
2022-11-13T05:44:15.122Z,0.30
2022-11-13T05:46:41.736Z,0.45
2022-11-13T05:49:09.799Z,0.85
2022-11-13T05:51:36.471Z,0.80
2022-11-13T05:54:05.316Z,0.73
2022-11-13T05:56:36.200Z,0.30
2022-11-13T05:59:04.821Z,0.50
2022-11-13T06:01:34.435Z,0.40
2022-11-13T06:04:02.488Z,0.50
2022-11-13T06:06:30.676Z,0.50
2022-11-13T06:08:59.854Z,0.98
2022-11-13T06:11:29.222Z,0.80
2022-11-13T06:13:57.249Z,0.50
2022-11-13T06:16:26.346Z,0.45
2022-11-13T06:18:58.376Z,0.43
2022-11-13T06:21:29.570Z,0.35
2022-11-13T06:24:00.236Z,0.30
2022-11-13T06:26:32.124Z,0.50
2022-11-13T06:28:59.448Z,0.30
2022-11-13T06:31:28.562Z,0.68
2022-11-13T06:33:56.638Z,0.90
2022-11-13T06:36:26.006Z,0.55
2022-11-13T06:38:53.161Z,0.55
2022-11-13T06:41:21.667Z,0.40
2022-11-13T06:43:48.930Z,0.43
2022-11-13T06:46:17.877Z,0.30
2022-11-13T06:48:44.992Z,0.60
2022-11-13T06:51:20.211Z,0.37
2022-11-13T06:53:47.606Z,0.63
2022-11-13T06:56:14.931Z,0.25
2022-11-13T06:58:42.173Z,0.20
2022-11-13T07:01:11.418Z,0.32
2022-11-13T07:03:38.971Z,0.10
2022-11-13T07:06:10.247Z,0.80
2022-11-13T07:08:36.967Z,0.30
2022-11-13T07:11:05.058Z,0.30
2022-11-13T07:13:31.697Z,0.60
2022-11-13T07:16:15.837Z,0.30
2022-11-13T07:18:43.968Z,0.50
2022-11-13T07:21:12.295Z,0.38
2022-11-13T07:23:45.788Z,0.55
2022-11-13T07:26:12.650Z,0.20
2022-11-13T07:28:39.439Z,0.50
2022-11-13T07:31:09.028Z,0.20
2022-11-13T07:33:35.714Z,0.50
2022-11-13T07:36:02.349Z,0.40
2022-11-13T07:38:29.300Z,0.35
2022-11-13T07:40:59.128Z,1.05
2022-11-13T07:43:25.923Z,0.52
2022-11-13T07:45:54.576Z,0.20
2022-11-13T07:48:22.671Z,0.20
2022-11-13T07:50:50.224Z,0.25
2022-11-13T07:53:17.681Z,0.70
2022-11-13T07:55:44.302Z,0.63
2022-11-13T07:58:11.260Z,0.45
2022-11-13T08:00:40.853Z,0.30
2022-11-13T08:03:17.157Z,0.70
2022-11-13T08:05:44.088Z,0.50
2022-11-13T08:08:14.811Z,0.75
2022-11-13T08:10:42.076Z,0.73
2022-11-13T08:13:12.076Z,0.60
2022-11-13T08:15:38.924Z,0.67
2022-11-13T08:18:06.414Z,0.70
2022-11-13T08:20:34.245Z,1.02
2022-11-13T08:23:05.159Z,0.73
2022-11-13T08:25:33.290Z,0.57
2022-11-13T08:28:02.781Z,0.88
2022-11-13T08:30:29.752Z,1.13
2022-11-13T08:32:56.620Z,1.45
2022-11-13T08:35:29.134Z,0.88
2022-11-13T08:38:05.682Z,1.20
2022-11-13T08:40:32.837Z,0.85
2022-11-13T08:43:00.605Z,1.10
2022-11-13T08:45:28.298Z,0.85
2022-11-13T08:47:54.997Z,0.80
2022-11-13T08:50:22.714Z,0.83
2022-11-13T08:52:55.660Z,0.82
2022-11-13T08:55:24.639Z,1.08
2022-11-13T08:57:52.085Z,0.80
2022-11-13T09:00:19.246Z,1.30
2022-11-13T09:02:46.340Z,1.48
2022-11-13T09:05:16.124Z,0.52
2022-11-13T09:07:42.709Z,0.80
2022-11-13T09:10:09.537Z,0.77
2022-11-13T09:12:36.356Z,1.85
2022-11-13T09:15:02.991Z,0.80
2022-11-13T09:17:29.575Z,1.27
2022-11-13T09:20:00.791Z,1.17
2022-11-13T09:22:30.356Z,0.90
2022-11-13T09:24:59.327Z,0.70
2022-11-13T09:27:25.967Z,0.93
2022-11-13T09:29:55.570Z,1.33
2022-11-13T09:32:22.989Z,0.80
2022-11-13T09:34:51.675Z,0.80
2022-11-13T09:37:18.758Z,0.90
2022-11-13T09:39:45.427Z,1.23
2022-11-13T09:42:22.112Z,1.02
2022-11-13T09:45:18.323Z,1.37
2022-11-13T09:47:47.540Z,1.02
2022-11-13T09:50:23.700Z,0.68
2022-11-13T09:52:51.994Z,0.82
2022-11-13T09:55:25.457Z,1.13
2022-11-13T09:58:05.115Z,0.75
2022-11-13T10:00:36.254Z,0.98
2022-11-13T10:03:54.189Z,1.20
2022-11-13T10:06:24.786Z,0.80
2022-11-13T10:08:58.411Z,1.10
2022-11-13T10:11:37.725Z,0.90
2022-11-13T10:14:20.440Z,0.68
2022-11-13T10:17:09.495Z,0.43
2022-11-13T10:19:57.455Z,0.80
2022-11-13T10:22:54.633Z,0.77
2022-11-13T10:25:28.836Z,1.02
2022-11-13T10:28:28.008Z,0.90
2022-11-13T10:30:52.885Z,0.68
2022-11-13T10:33:22.189Z,0.88
2022-11-13T10:36:04.469Z,0.60
2022-11-13T10:38:57.566Z,1.52
2022-11-13T10:41:27.108Z,0.85
2022-11-13T10:43:59.368Z,0.63
2022-11-13T10:46:29.963Z,0.70
2022-11-13T10:48:58.207Z,0.88
2022-11-13T10:51:36.852Z,0.82
2022-11-13T10:54:22.344Z,0.70
2022-11-13T10:56:58.602Z,0.70
2022-11-13T10:59:39.251Z,0.93
2022-11-13T11:02:25.920Z,0.60
2022-11-13T11:05:07.486Z,0.70
2022-11-13T11:07:41.402Z,0.73
2022-11-13T11:10:31.615Z,0.60
2022-11-13T11:13:12.848Z,0.80
2022-11-13T11:15:44.779Z,0.70
2022-11-13T11:18:36.805Z,0.95
2022-11-13T11:21:12.825Z,0.95
2022-11-13T11:24:07.102Z,0.57
2022-11-13T11:26:49.498Z,0.73
2022-11-13T11:29:22.126Z,0.80
2022-11-13T11:31:51.887Z,0.68
2022-11-13T11:34:45.847Z,0.77
2022-11-13T11:37:39.908Z,0.40
2022-11-13T11:40:31.047Z,1.20
2022-11-13T11:43:38.139Z,1.07
2022-11-13T11:46:05.063Z,1.00
2022-11-13T11:48:33.074Z,0.73
2022-11-13T11:51:26.800Z,1.13
2022-11-13T11:54:14.598Z,0.75
2022-11-13T11:56:49.077Z,0.70
2022-11-13T11:59:32.559Z,1.10
2022-11-13T12:02:33.995Z,1.05
2022-11-13T12:05:23.975Z,1.23
2022-11-13T12:08:12.935Z,1.38
2022-11-13T12:10:58.453Z,0.77
2022-11-13T12:14:16.209Z,1.17
2022-11-13T12:17:27.757Z,1.33
2022-11-13T12:20:06.372Z,0.88
2022-11-13T12:22:46.484Z,0.70
2022-11-13T12:25:35.663Z,0.80
2022-11-13T12:28:24.356Z,0.50
2022-11-13T12:31:09.581Z,0.47
2022-11-13T12:34:08.303Z,0.55
2022-11-13T12:36:35.381Z,0.60
2022-11-13T12:39:39.299Z,0.70
2022-11-13T12:42:45.456Z,0.75
2022-11-13T12:45:30.768Z,0.60
2022-11-13T12:48:09.418Z,0.60
2022-11-13T12:50:36.309Z,0.60
2022-11-13T12:53:10.989Z,0.85
2022-11-13T12:55:40.222Z,0.50
2022-11-13T12:58:23.243Z,0.60
2022-11-13T13:01:05.188Z,0.60
2022-11-13T13:03:41.224Z,0.70
2022-11-13T13:06:42.071Z,0.60
2022-11-13T13:09:27.630Z,0.43
2022-11-13T13:12:18.343Z,0.75
2022-11-13T13:15:00.107Z,0.60
2022-11-13T13:17:26.933Z,0.50
2022-11-13T13:20:05.303Z,0.60
2022-11-13T13:22:34.746Z,0.53
2022-11-13T13:25:08.425Z,0.47
2022-11-13T13:27:39.674Z,0.52
2022-11-13T13:30:20.631Z,0.70
2022-11-13T13:32:54.495Z,0.90
2022-11-13T13:35:48.393Z,0.70
2022-11-13T13:38:49.375Z,0.60
2022-11-13T13:41:50.788Z,0.22
2022-11-13T13:44:33.467Z,0.33
2022-11-13T13:47:00.213Z,0.30
2022-11-13T13:49:28.659Z,1.10
2022-11-13T13:51:57.340Z,1.00
2022-11-13T13:54:31.603Z,0.95
2022-11-13T13:56:58.763Z,0.57
2022-11-13T13:59:36.931Z,0.75
2022-11-13T14:02:15.776Z,0.90
2022-11-13T14:04:50.335Z,0.40
2022-11-13T14:07:24.336Z,0.70
2022-11-13T14:10:05.427Z,0.85
2022-11-13T14:12:32.147Z,1.75
2022-11-13T14:14:58.728Z,0.60
2022-11-13T14:17:25.470Z,0.60
2022-11-13T14:20:00.955Z,0.63
2022-11-13T14:22:30.371Z,0.38
2022-11-13T14:25:01.208Z,0.40
2022-11-13T14:27:29.015Z,0.47
2022-11-13T14:29:59.445Z,0.30
2022-11-13T14:32:30.037Z,0.50
2022-11-13T14:35:00.811Z,0.40
2022-11-13T14:37:37.576Z,1.27
2022-11-13T14:40:20.847Z,0.70
2022-11-13T14:43:02.017Z,0.40
2022-11-13T14:45:31.777Z,0.45
2022-11-13T14:48:01.515Z,0.50
2022-11-13T14:50:34.063Z,0.40
2022-11-13T14:53:03.941Z,0.47
2022-11-13T14:55:36.480Z,0.60
2022-11-13T14:58:03.487Z,0.55
2022-11-13T15:00:38.094Z,0.70
2022-11-13T15:03:06.457Z,0.60
2022-11-13T15:05:33.307Z,0.40
2022-11-13T15:08:00.113Z,0.65
2022-11-13T15:10:29.109Z,0.40
2022-11-13T15:12:55.743Z,0.30
2022-11-13T15:15:30.060Z,0.50
2022-11-13T15:17:57.874Z,0.52
2022-11-13T15:20:27.467Z,0.47
2022-11-13T15:22:55.167Z,0.65
2022-11-13T15:25:23.434Z,0.70
2022-11-13T15:27:50.140Z,0.77
2022-11-13T15:30:17.613Z,0.80
2022-11-13T15:32:44.611Z,1.05
2022-11-13T15:35:15.651Z,1.35
2022-11-13T15:37:43.007Z,0.80
2022-11-13T15:40:14.114Z,1.58
2022-11-13T15:42:41.300Z,0.95
2022-11-13T15:45:14.682Z,0.70
2022-11-13T15:47:41.986Z,0.77
2022-11-13T15:50:13.877Z,0.98
2022-11-13T15:52:45.712Z,0.65
2022-11-13T15:55:39.751Z,0.70
2022-11-13T15:58:10.450Z,1.00
2022-11-13T16:00:42.082Z,0.57
2022-11-13T16:03:12.062Z,0.75
2022-11-13T16:05:38.910Z,0.90
2022-11-13T16:08:13.438Z,1.02
2022-11-13T16:10:40.243Z,1.30
2022-11-13T16:13:06.939Z,2.05
2022-11-13T16:15:33.625Z,1.88
2022-11-13T16:18:01.770Z,0.95
2022-11-13T16:20:28.633Z,0.65
2022-11-13T16:22:55.326Z,1.10
2022-11-13T16:25:22.939Z,1.38
2022-11-13T16:27:50.789Z,1.27
2022-11-13T16:30:20.191Z,0.90
2022-11-13T16:32:47.591Z,0.70
2022-11-13T16:35:18.869Z,0.52
2022-11-13T16:37:46.034Z,1.03
2022-11-13T16:40:26.706Z,1.38
2022-11-13T16:42:53.998Z,0.90
2022-11-13T16:45:29.138Z,1.30
2022-11-13T16:47:57.205Z,0.80
2022-11-13T16:50:30.101Z,1.10
2022-11-13T16:52:56.745Z,0.80
2022-11-13T16:55:26.440Z,1.50
2022-11-13T16:57:55.492Z,1.00
2022-11-13T17:00:22.303Z,0.70
2022-11-13T17:02:52.770Z,1.10
2022-11-13T17:05:20.821Z,0.80
2022-11-13T17:07:47.742Z,1.25
2022-11-13T17:10:30.897Z,0.60
2022-11-13T17:12:59.070Z,0.93
2022-11-13T17:15:25.764Z,0.60
2022-11-13T17:17:57.113Z,0.73
2022-11-13T17:20:24.459Z,1.08
2022-11-13T17:22:53.412Z,0.70
2022-11-13T17:25:26.360Z,0.80
2022-11-13T17:27:53.056Z,1.02
2022-11-13T17:30:19.808Z,0.65
2022-11-13T17:32:46.467Z,1.00
2022-11-13T17:35:13.268Z,0.57
2022-11-13T17:37:40.129Z,1.00
2022-11-13T17:40:07.960Z,1.75
2022-11-13T17:42:34.597Z,1.67
2022-11-13T17:45:01.919Z,0.73
2022-11-13T17:47:28.536Z,0.97
2022-11-13T17:49:56.043Z,1.23
2022-11-13T17:52:25.586Z,2.65
2022-11-13T17:54:52.236Z,2.20
2022-11-13T17:57:21.569Z,3.60
2022-11-13T17:59:52.291Z,2.08
2022-11-13T18:02:18.924Z,2.42
2022-11-13T18:04:45.678Z,2.00
2022-11-13T18:07:12.403Z,1.98
2022-11-13T18:09:39.149Z,1.75
2022-11-13T18:12:08.703Z,2.17
2022-11-13T18:14:35.346Z,3.28
2022-11-13T18:17:02.230Z,2.22
2022-11-13T18:19:28.880Z,2.03
2022-11-13T18:21:55.671Z,2.00
2022-11-13T18:24:22.425Z,1.42
2022-11-13T18:26:49.381Z,0.77
2022-11-13T18:29:18.092Z,1.30
2022-11-13T18:31:45.050Z,0.93
2022-11-13T18:34:16.543Z,0.73
2022-11-13T18:36:45.784Z,0.87
2022-11-13T18:39:16.431Z,1.40
2022-11-13T18:41:46.420Z,0.90
2022-11-13T18:44:13.214Z,0.93
2022-11-13T18:46:42.614Z,1.90
2022-11-13T18:49:09.350Z,1.83
2022-11-13T18:51:36.521Z,0.90
2022-11-13T18:54:09.504Z,1.08
2022-11-13T18:56:36.577Z,1.00
2022-11-13T18:59:03.402Z,1.40
2022-11-13T19:01:34.838Z,0.60
2022-11-13T19:06:52.345Z,1.02
2022-11-13T19:09:19.702Z,1.20
2022-11-13T19:11:46.943Z,1.40
2022-11-13T19:14:15.576Z,1.38
2022-11-13T19:16:42.257Z,1.92
2022-11-13T19:19:17.049Z,1.35
2022-11-13T19:21:44.224Z,1.83
2022-11-13T19:24:11.923Z,1.73
2022-11-13T19:26:38.953Z,2.40
2022-11-13T19:29:05.706Z,2.00
2022-11-13T19:31:32.641Z,1.92
2022-11-13T19:34:01.892Z,1.45
2022-11-13T19:36:30.384Z,2.03
2022-11-13T19:38:57.720Z,1.50
2022-11-13T19:41:35.431Z,1.90
2022-11-13T19:44:02.323Z,1.38
2022-11-13T19:46:32.013Z,1.77
2022-11-13T19:48:58.767Z,3.22
2022-11-13T19:51:26.408Z,1.83
2022-11-13T19:53:58.908Z,2.05
2022-11-13T19:56:28.198Z,2.25
2022-11-13T19:58:55.470Z,2.80
2022-11-13T20:01:24.599Z,2.30
2022-11-13T20:04:02.946Z,2.65
2022-11-13T20:06:31.842Z,2.35
2022-11-13T20:09:00.136Z,2.60
2022-11-13T20:11:27.394Z,1.77
2022-11-13T20:13:55.767Z,2.55
2022-11-13T20:16:23.529Z,1.67
2022-11-13T20:18:50.852Z,2.05
2022-11-13T20:21:31.470Z,2.63
2022-11-13T20:23:59.436Z,2.63
2022-11-13T20:26:27.433Z,2.75
2022-11-13T20:28:54.188Z,3.30
2022-11-13T20:31:25.637Z,2.58
2022-11-13T20:33:55.107Z,1.90
2022-11-13T20:36:23.252Z,2.17
2022-11-13T20:38:52.477Z,1.85
2022-11-13T20:41:20.645Z,1.38
2022-11-13T20:43:51.131Z,1.87
2022-11-13T20:46:19.856Z,1.15
2022-11-13T20:48:52.232Z,1.25
2022-11-13T20:51:21.639Z,0.95
2022-11-13T20:53:49.322Z,0.95
2022-11-13T20:56:17.070Z,0.90
2022-11-13T20:58:43.940Z,0.95
2022-11-13T21:01:16.178Z,0.95
2022-11-13T21:03:44.980Z,0.90
2022-11-13T21:06:20.350Z,1.00
2022-11-13T21:08:47.745Z,1.23
2022-11-13T21:11:21.897Z,1.13
2022-11-13T21:13:49.694Z,0.50
2022-11-13T21:16:18.177Z,1.02
2022-11-13T21:18:46.025Z,1.17
2022-11-13T21:21:19.533Z,1.30
2022-11-13T21:23:47.604Z,1.75
2022-11-13T21:26:14.864Z,1.13
2022-11-13T21:28:41.665Z,1.05
2022-11-13T21:31:14.900Z,0.88
2022-11-13T21:33:43.309Z,1.20
2022-11-13T21:36:13.110Z,1.07
2022-11-13T21:38:40.606Z,0.80
2022-11-13T21:41:25.079Z,1.85
2022-11-13T21:43:51.819Z,1.17
2022-11-13T21:46:20.082Z,1.27
2022-11-13T21:48:47.044Z,1.40
2022-11-13T21:51:13.938Z,1.25
2022-11-13T21:53:40.977Z,1.17
2022-11-13T21:56:12.664Z,1.23
2022-11-13T21:58:44.788Z,1.35
2022-11-13T22:01:14.200Z,1.77
2022-11-13T22:03:41.507Z,1.10
2022-11-13T22:06:31.484Z,1.38
2022-11-13T22:09:00.743Z,1.05
2022-11-13T22:11:33.216Z,0.88
2022-11-13T22:14:00.448Z,1.30
2022-11-13T22:16:29.064Z,0.95
2022-11-13T22:18:57.308Z,0.60
2022-11-13T22:21:25.734Z,0.60
2022-11-13T22:23:52.502Z,1.00
2022-11-13T22:26:20.236Z,0.85
2022-11-13T22:28:47.845Z,1.10
2022-11-13T22:31:18.023Z,0.80
2022-11-13T22:33:48.800Z,0.70
2022-11-13T22:36:18.583Z,0.90
2022-11-13T22:38:45.553Z,0.85
2022-11-13T22:41:23.328Z,1.00
2022-11-13T22:43:53.129Z,0.70
2022-11-13T22:46:22.403Z,0.88
2022-11-13T22:48:50.672Z,1.15
2022-11-13T22:51:29.290Z,0.95
2022-11-13T22:54:01.201Z,1.10
2022-11-13T22:56:29.800Z,1.10
2022-11-13T22:58:59.464Z,0.88
2022-11-13T23:01:28.787Z,0.93
2022-11-13T23:03:57.036Z,0.70
2022-11-13T23:06:28.712Z,0.98
2022-11-13T23:08:55.738Z,1.53
2022-11-13T23:11:32.742Z,0.75
2022-11-13T23:14:04.490Z,0.70
2022-11-13T23:16:32.315Z,0.70
2022-11-13T23:19:00.496Z,0.68
2022-11-13T23:21:28.650Z,0.93
2022-11-13T23:23:56.463Z,0.80
2022-11-13T23:26:24.385Z,1.00
2022-11-13T23:28:51.222Z,0.70
2022-11-13T23:31:18.291Z,0.90
2022-11-13T23:33:45.088Z,1.25
2022-11-13T23:36:15.484Z,1.10
2022-11-13T23:38:42.189Z,0.77
2022-11-13T23:41:10.070Z,0.90
2022-11-13T23:44:07.206Z,1.10
2022-11-13T23:46:23.434Z,1.00
2022-11-13T23:48:50.100Z,1.27
2022-11-13T23:51:16.750Z,0.93
2022-11-13T23:53:43.379Z,0.80
2022-11-13T23:56:13.856Z,0.85
2022-11-13T23:58:40.569Z,0.65
